createdAt,value
2022-08-12T00:00:58.973Z,21.24
2022-08-12T00:02:03.810Z,21.23
2022-08-12T00:02:59.039Z,21.32
2022-08-12T00:03:58.917Z,21.29
2022-08-12T00:04:58.912Z,21.29
2022-08-12T00:06:04.751Z,21.29
2022-08-12T00:06:58.870Z,21.19
2022-08-12T00:07:58.891Z,21.20
2022-08-12T00:08:58.831Z,21.14
2022-08-12T00:09:58.821Z,21.21
2022-08-12T00:10:58.813Z,21.30
2022-08-12T00:11:58.798Z,21.29
2022-08-12T00:12:58.792Z,21.45
2022-08-12T00:13:58.775Z,21.66
2022-08-12T00:14:58.743Z,21.72
2022-08-12T00:15:58.730Z,21.64
2022-08-12T00:16:58.696Z,21.66
2022-08-12T00:17:58.698Z,21.71
2022-08-12T00:18:58.662Z,21.78
2022-08-12T00:19:58.654Z,21.59
2022-08-12T00:20:58.638Z,21.54
2022-08-12T00:21:58.607Z,21.57
2022-08-12T00:22:59.300Z,21.61
2022-08-12T00:23:58.577Z,21.53
2022-08-12T00:24:58.566Z,21.48
2022-08-12T00:26:22.975Z,21.57
2022-08-12T00:26:58.530Z,21.50
2022-08-12T00:27:58.529Z,21.50
2022-08-12T00:28:58.504Z,21.53
2022-08-12T00:29:58.475Z,21.38
2022-08-12T00:30:58.468Z,21.27
2022-08-12T00:31:58.454Z,21.26
2022-08-12T00:32:58.847Z,21.20
2022-08-12T00:33:58.413Z,21.32
2022-08-12T00:34:58.432Z,21.32
2022-08-12T00:35:58.389Z,21.20
2022-08-12T00:37:02.806Z,21.16
2022-08-12T00:37:58.352Z,20.87
2022-08-12T00:38:58.324Z,20.91
2022-08-12T00:39:58.344Z,20.83
2022-08-12T00:40:58.309Z,20.72
2022-08-12T00:41:58.274Z,20.71
2022-08-12T00:42:58.256Z,20.68
2022-08-12T00:43:58.242Z,20.56
2022-08-12T00:44:58.247Z,20.59
2022-08-12T00:45:58.203Z,20.71
2022-08-12T00:46:58.192Z,20.68
2022-08-12T00:47:58.185Z,20.74
2022-08-12T00:48:58.164Z,20.66
2022-08-12T00:49:58.143Z,20.71
2022-08-12T00:50:58.128Z,20.77
2022-08-12T00:51:58.141Z,20.77
2022-08-12T00:52:58.092Z,20.71
2022-08-12T00:53:58.075Z,20.66
2022-08-12T00:54:58.067Z,20.61
2022-08-12T00:55:58.053Z,20.56
2022-08-12T00:56:58.024Z,20.59
2022-08-12T00:57:58.012Z,20.53
2022-08-12T00:58:57.980Z,20.59
2022-08-12T00:59:57.988Z,20.50
2022-08-12T01:00:58.005Z,20.31
2022-08-12T01:02:02.481Z,20.27
2022-08-12T01:02:57.949Z,20.39
2022-08-12T01:03:58.617Z,20.38
2022-08-12T01:04:57.885Z,20.30
2022-08-12T01:05:57.866Z,20.30
2022-08-12T01:06:57.852Z,20.42
2022-08-12T01:07:57.863Z,20.43
2022-08-12T01:08:57.818Z,20.49
2022-08-12T01:09:57.799Z,20.33
2022-08-12T01:10:57.780Z,20.28
2022-08-12T01:11:57.765Z,20.13
2022-08-12T01:13:07.496Z,20.08
2022-08-12T01:13:57.762Z,19.88
2022-08-12T01:14:57.722Z,19.78
2022-08-12T01:15:57.699Z,19.72
2022-08-12T01:16:57.681Z,19.69
2022-08-12T01:17:57.664Z,19.55
2022-08-12T01:18:57.652Z,19.48
2022-08-12T01:19:57.623Z,19.28
2022-08-12T01:20:57.614Z,19.18
2022-08-12T01:21:57.596Z,19.14
2022-08-12T01:22:57.578Z,19.01
2022-08-12T01:23:57.555Z,18.82
2022-08-12T01:24:57.548Z,18.73
2022-08-12T01:25:57.539Z,18.64
2022-08-12T01:26:57.520Z,18.59
2022-08-12T01:27:57.486Z,18.42
2022-08-12T01:28:58.516Z,18.36
2022-08-12T01:29:57.447Z,18.31
2022-08-12T01:30:57.443Z,18.19
2022-08-12T01:31:57.422Z,18.31
2022-08-12T01:32:57.399Z,18.47
2022-08-12T01:33:57.387Z,18.42
2022-08-12T01:34:57.363Z,18.43
2022-08-12T01:35:57.823Z,18.44
2022-08-12T01:36:57.333Z,18.39
2022-08-12T01:37:57.308Z,18.27
2022-08-12T01:38:57.294Z,18.22
2022-08-12T01:40:33.740Z,18.27
2022-08-12T01:40:57.324Z,18.10
2022-08-12T01:41:57.266Z,17.92
2022-08-12T01:42:57.248Z,17.94
2022-08-12T01:43:57.203Z,17.82
2022-08-12T01:44:57.183Z,17.67
2022-08-12T01:45:57.750Z,17.63
2022-08-12T01:46:57.152Z,17.48
2022-08-12T01:47:57.123Z,17.30
2022-08-12T01:48:57.105Z,17.15
2022-08-12T01:49:57.087Z,17.14
2022-08-12T01:51:00.414Z,16.98
2022-08-12T01:52:15.438Z,17.07
2022-08-12T01:52:57.030Z,16.86
2022-08-12T01:53:57.024Z,16.86
2022-08-12T01:54:57.000Z,16.75
2022-08-12T01:55:56.991Z,16.71
2022-08-12T01:56:56.962Z,16.55
2022-08-12T01:57:58.043Z,16.49
2022-08-12T01:58:56.988Z,16.45
2022-08-12T01:59:56.911Z,16.45
2022-08-12T02:00:56.951Z,16.40
2022-08-12T02:01:56.944Z,16.37
2022-08-12T02:02:56.853Z,16.20
2022-08-12T02:03:56.830Z,16.26
2022-08-12T02:04:56.807Z,16.11
2022-08-12T02:05:56.791Z,16.06
2022-08-12T02:06:56.796Z,16.01
2022-08-12T02:07:56.759Z,15.88
2022-08-12T02:08:56.773Z,15.85
2022-08-12T02:09:56.714Z,15.75
2022-08-12T02:10:56.703Z,15.72
2022-08-12T02:11:56.678Z,15.63
2022-08-12T02:12:56.659Z,15.63
2022-08-12T02:13:56.630Z,15.60
2022-08-12T02:14:56.617Z,15.45
2022-08-12T02:15:56.611Z,15.41
2022-08-12T02:16:56.599Z,15.51
2022-08-12T02:17:56.983Z,15.42
2022-08-12T02:18:56.541Z,15.38
2022-08-12T02:19:56.521Z,15.33
2022-08-12T02:20:56.491Z,15.36
2022-08-12T02:21:56.533Z,15.27
2022-08-12T02:22:56.459Z,15.28
2022-08-12T02:23:56.446Z,15.24
2022-08-12T02:24:56.420Z,15.21
2022-08-12T02:25:56.395Z,15.05
2022-08-12T02:26:56.384Z,15.09
2022-08-12T02:27:56.360Z,15.06
2022-08-12T02:28:56.336Z,15.05
2022-08-12T02:29:56.317Z,14.94
2022-08-12T02:30:56.307Z,14.93
2022-08-12T02:31:56.272Z,14.81
2022-08-12T02:32:56.340Z,14.90
2022-08-12T02:33:56.241Z,14.86
2022-08-12T02:34:56.228Z,14.83
2022-08-12T02:35:56.197Z,14.83
2022-08-12T02:36:57.621Z,14.81
2022-08-12T02:37:56.177Z,14.65
2022-08-12T02:38:56.137Z,14.75
2022-08-12T02:39:56.168Z,14.67
2022-08-12T02:40:56.093Z,14.64
2022-08-12T02:41:56.078Z,14.64
2022-08-12T02:42:56.064Z,14.67
2022-08-12T02:43:56.040Z,14.65
2022-08-12T02:44:56.022Z,14.61
2022-08-12T02:45:55.984Z,14.61
2022-08-12T02:46:55.980Z,14.50
2022-08-12T02:47:59.632Z,14.52
2022-08-12T02:48:55.928Z,14.52
2022-08-12T02:49:55.905Z,14.38
2022-08-12T02:50:55.894Z,14.47
2022-08-12T02:51:55.867Z,14.44
2022-08-12T02:52:55.872Z,14.49
2022-08-12T02:54:03.262Z,14.53
2022-08-12T02:54:55.815Z,14.57
2022-08-12T02:55:55.785Z,14.57
2022-08-12T02:56:55.770Z,14.62
2022-08-12T02:57:55.744Z,14.61
2022-08-12T02:58:55.736Z,14.60
2022-08-12T02:59:55.706Z,14.65
2022-08-12T03:00:55.718Z,14.69
2022-08-12T03:01:55.665Z,14.78
2022-08-12T03:02:55.643Z,14.75
2022-08-12T03:03:55.623Z,14.80
2022-08-12T03:04:55.603Z,14.87
2022-08-12T03:05:55.584Z,14.84
2022-08-12T03:06:55.559Z,14.84
2022-08-12T03:07:59.825Z,14.94
2022-08-12T03:08:55.514Z,15.08
2022-08-12T03:10:04.345Z,15.15
2022-08-12T03:10:55.480Z,15.23
2022-08-12T03:11:55.461Z,15.27
2022-08-12T03:12:55.434Z,15.11
2022-08-12T03:13:55.423Z,15.23
2022-08-12T03:14:55.398Z,15.08
2022-08-12T03:15:55.403Z,15.03
2022-08-12T03:16:55.350Z,14.91
2022-08-12T03:18:24.833Z,14.88
2022-08-12T03:18:55.310Z,14.78
2022-08-12T03:20:09.179Z,14.78
2022-08-12T03:20:55.281Z,14.68
2022-08-12T03:22:09.505Z,14.67
2022-08-12T03:22:55.232Z,14.65
2022-08-12T03:23:55.208Z,14.61
2022-08-12T03:24:55.241Z,14.56
2022-08-12T03:25:55.204Z,14.54
2022-08-12T03:26:55.145Z,14.37
2022-08-12T03:27:55.133Z,14.42
2022-08-12T03:28:55.101Z,14.25
2022-08-12T03:29:55.086Z,14.32
2022-08-12T03:30:56.843Z,14.24
2022-08-12T03:31:55.045Z,14.16
2022-08-12T03:32:55.034Z,14.14
2022-08-12T03:34:01.267Z,14.04
2022-08-12T03:34:54.986Z,14.13
2022-08-12T03:35:54.960Z,14.01
2022-08-12T03:36:55.332Z,13.95
2022-08-12T03:37:54.917Z,13.94
2022-08-12T03:38:54.898Z,13.99
2022-08-12T03:39:54.920Z,14.01
2022-08-12T03:40:54.870Z,13.95
2022-08-12T03:41:54.834Z,13.99
2022-08-12T03:42:54.821Z,13.95
2022-08-12T03:43:54.798Z,13.89
2022-08-12T03:44:54.772Z,13.81
2022-08-12T03:45:54.756Z,13.76
2022-08-12T03:46:54.734Z,13.81
2022-08-12T03:47:54.722Z,13.77
2022-08-12T03:48:54.732Z,13.70
2022-08-12T03:49:54.742Z,13.69
2022-08-12T03:50:54.669Z,13.67
2022-08-12T03:51:54.640Z,13.54
2022-08-12T03:52:54.603Z,13.56
2022-08-12T03:53:54.580Z,13.54
2022-08-12T03:54:54.567Z,13.55
2022-08-12T03:55:54.540Z,13.49
2022-08-12T03:56:54.524Z,13.46
2022-08-12T03:57:54.496Z,13.41
2022-08-12T03:58:54.495Z,13.40
2022-08-12T03:59:54.462Z,13.30
2022-08-12T04:00:54.471Z,13.38
2022-08-12T04:01:54.419Z,13.33
2022-08-12T04:02:54.396Z,13.27
2022-08-12T04:03:54.372Z,13.25
2022-08-12T04:04:54.358Z,13.21
2022-08-12T04:05:56.291Z,13.15
2022-08-12T04:06:54.352Z,13.14
2022-08-12T04:07:58.409Z,13.20
2022-08-12T04:08:54.269Z,13.12
2022-08-12T04:09:54.268Z,13.25
2022-08-12T04:10:54.233Z,13.21
2022-08-12T04:11:54.208Z,13.22
2022-08-12T04:12:54.190Z,13.12
2022-08-12T04:13:54.199Z,13.17
2022-08-12T04:14:54.142Z,13.18
2022-08-12T04:15:54.124Z,13.04
2022-08-12T04:16:54.116Z,13.07
2022-08-12T04:18:06.506Z,13.03
2022-08-12T04:18:54.053Z,13.00
2022-08-12T04:19:54.075Z,13.03
2022-08-12T04:20:54.042Z,12.97
2022-08-12T04:22:02.861Z,12.92
2022-08-12T04:22:53.969Z,12.93
2022-08-12T04:23:53.955Z,12.93
2022-08-12T04:24:53.928Z,12.88
2022-08-12T04:25:53.907Z,12.92
2022-08-12T04:26:53.922Z,12.93
2022-08-12T04:27:53.873Z,12.96
2022-08-12T04:28:53.852Z,12.84
2022-08-12T04:30:29.477Z,13.00
2022-08-12T04:30:53.801Z,13.03
2022-08-12T04:31:53.786Z,13.03
2022-08-12T04:32:53.983Z,13.04
2022-08-12T04:33:53.739Z,13.09
2022-08-12T04:34:53.709Z,13.03
2022-08-12T04:35:53.697Z,13.03
2022-08-12T04:36:53.674Z,13.11
2022-08-12T04:37:59.313Z,13.04
2022-08-12T04:38:57.673Z,13.02
2022-08-12T04:39:53.697Z,13.00
2022-08-12T04:40:53.585Z,13.02
2022-08-12T04:41:58.669Z,12.89
2022-08-12T04:42:53.539Z,12.93
2022-08-12T04:44:00.596Z,12.95
2022-08-12T04:44:53.502Z,12.85
2022-08-12T04:45:53.475Z,12.87
2022-08-12T04:46:53.449Z,12.79
2022-08-12T04:47:53.433Z,12.84
2022-08-12T04:48:53.408Z,12.96
2022-08-12T04:49:53.394Z,12.89
2022-08-12T04:50:53.371Z,12.85
2022-08-12T04:51:53.441Z,12.87
2022-08-12T04:52:53.316Z,12.92
2022-08-12T04:53:53.303Z,12.93
2022-08-12T04:54:53.289Z,12.84
2022-08-12T04:55:53.256Z,12.97
2022-08-12T04:57:04.317Z,12.96
2022-08-12T04:57:53.218Z,12.92
2022-08-12T04:58:53.225Z,12.88
2022-08-12T04:59:53.171Z,12.87
2022-08-12T05:00:53.154Z,12.92
2022-08-12T05:01:53.181Z,12.96
2022-08-12T05:02:53.164Z,12.87
2022-08-12T05:03:53.083Z,12.96
2022-08-12T05:04:53.072Z,13.00
2022-08-12T05:05:53.060Z,12.97
2022-08-12T05:06:53.030Z,13.04
2022-08-12T05:07:54.206Z,13.03
2022-08-12T05:08:52.985Z,13.09
2022-08-12T05:09:59.780Z,13.09
2022-08-12T05:10:52.935Z,13.20
2022-08-12T05:11:54.337Z,13.17
2022-08-12T05:12:52.913Z,13.12
2022-08-12T05:13:52.873Z,13.12
2022-08-12T05:14:52.870Z,13.21
2022-08-12T05:16:02.547Z,13.29
2022-08-12T05:16:52.834Z,13.37
2022-08-12T05:17:52.794Z,13.36
2022-08-12T05:18:52.768Z,13.44
2022-08-12T05:19:52.746Z,13.52
2022-08-12T05:20:52.730Z,13.52
2022-08-12T05:21:52.720Z,13.52
2022-08-12T05:22:57.219Z,13.58
2022-08-12T05:23:52.670Z,13.54
2022-08-12T05:24:52.652Z,13.54
2022-08-12T05:25:52.616Z,13.51
2022-08-12T05:26:52.594Z,13.62
2022-08-12T05:27:58.162Z,13.67
2022-08-12T05:28:52.556Z,13.79
2022-08-12T05:30:08.314Z,13.87
2022-08-12T05:30:52.510Z,13.89
2022-08-12T05:31:52.530Z,13.94
2022-08-12T05:32:53.704Z,13.98
2022-08-12T05:33:52.446Z,13.94
2022-08-12T05:34:52.423Z,13.99
2022-08-12T05:35:52.400Z,14.07
2022-08-12T05:36:52.385Z,14.07
2022-08-12T05:37:52.361Z,14.07
2022-08-12T05:38:52.360Z,14.16
2022-08-12T05:39:52.348Z,14.21
2022-08-12T05:40:52.290Z,14.19
2022-08-12T05:41:52.278Z,14.27
2022-08-12T05:42:52.259Z,14.47
2022-08-12T05:43:52.234Z,14.39
2022-08-12T05:44:52.207Z,14.60
2022-08-12T05:45:52.193Z,14.60
2022-08-12T05:46:52.172Z,14.68
2022-08-12T05:47:53.495Z,14.69
2022-08-12T05:48:52.170Z,14.83
2022-08-12T05:49:52.112Z,14.93
2022-08-12T05:50:52.090Z,14.93
2022-08-12T05:51:52.062Z,15.01
2022-08-12T05:52:52.894Z,14.99
2022-08-12T05:53:52.026Z,15.17
2022-08-12T05:54:57.593Z,15.26
2022-08-12T05:55:51.991Z,15.36
2022-08-12T05:56:51.964Z,15.41
2022-08-12T05:57:51.939Z,15.56
2022-08-12T05:58:51.932Z,15.57
2022-08-12T05:59:51.904Z,15.56
2022-08-12T06:00:51.874Z,15.75
2022-08-12T06:02:09.667Z,15.76
2022-08-12T06:02:51.884Z,15.86
2022-08-12T06:03:51.861Z,15.88
2022-08-12T06:04:51.802Z,16.03
2022-08-12T06:05:54.783Z,16.12
2022-08-12T06:06:51.759Z,16.22
2022-08-12T06:08:02.242Z,16.25
2022-08-12T06:08:51.746Z,16.38
2022-08-12T06:09:51.707Z,16.34
2022-08-12T06:10:51.684Z,16.48
2022-08-12T06:12:04.229Z,16.55
2022-08-12T06:12:51.659Z,16.62
2022-08-12T06:13:53.751Z,16.75
2022-08-12T06:14:51.606Z,16.81
2022-08-12T06:15:51.603Z,16.85
2022-08-12T06:16:51.559Z,16.90
2022-08-12T06:17:51.548Z,16.99
2022-08-12T06:18:51.519Z,17.06
2022-08-12T06:20:25.683Z,17.10
2022-08-12T06:20:51.843Z,17.20
2022-08-12T06:21:51.468Z,17.32
2022-08-12T06:22:54.493Z,17.46
2022-08-12T06:23:51.480Z,17.44
2022-08-12T06:24:51.403Z,17.50
2022-08-12T06:25:51.392Z,17.55
2022-08-12T06:26:51.380Z,17.69
2022-08-12T06:28:07.523Z,17.84
2022-08-12T06:28:51.337Z,18.00
2022-08-12T06:30:09.343Z,18.02
2022-08-12T06:31:08.554Z,18.17
2022-08-12T06:31:51.291Z,18.19
2022-08-12T06:33:11.449Z,18.27
2022-08-12T06:33:59.739Z,18.39
2022-08-12T06:35:27.287Z,18.65
2022-08-12T06:35:51.440Z,18.65
2022-08-12T06:36:51.186Z,18.76
2022-08-12T06:37:51.614Z,18.86
2022-08-12T06:38:51.151Z,18.98
2022-08-12T06:39:51.184Z,19.06
2022-08-12T06:40:51.110Z,19.15
2022-08-12T06:42:31.114Z,19.24
2022-08-12T06:42:51.093Z,19.42
2022-08-12T06:44:05.124Z,19.46
2022-08-12T06:44:51.036Z,19.55
2022-08-12T06:45:51.026Z,19.61
2022-08-12T06:46:50.997Z,19.86
2022-08-12T06:47:50.989Z,20.03
2022-08-12T06:48:50.962Z,20.12
2022-08-12T06:49:50.952Z,20.28
2022-08-12T06:50:50.937Z,20.34
2022-08-12T06:51:54.491Z,20.49
2022-08-12T06:52:50.894Z,20.72
2022-08-12T06:53:50.885Z,21.06
2022-08-12T06:54:50.856Z,21.53
2022-08-12T06:55:58.351Z,21.75
2022-08-12T06:57:57.228Z,21.95
2022-08-12T06:58:05.262Z,22.17
2022-08-12T06:58:50.792Z,22.27
2022-08-12T06:59:50.780Z,22.47
2022-08-12T07:00:50.839Z,22.44
2022-08-12T07:01:51.662Z,22.47
2022-08-12T07:02:50.726Z,22.67
2022-08-12T07:03:50.708Z,22.69
2022-08-12T07:04:50.698Z,22.62
2022-08-12T07:05:51.005Z,22.68
2022-08-12T07:06:50.664Z,22.80
2022-08-12T07:07:50.651Z,22.87
2022-08-12T07:08:50.628Z,22.99
2022-08-12T07:10:06.653Z,23.04
2022-08-12T07:10:50.604Z,23.14
2022-08-12T07:11:50.844Z,23.20
2022-08-12T07:12:50.569Z,23.35
2022-08-12T07:14:12.557Z,23.50
2022-08-12T07:14:50.530Z,23.50
2022-08-12T07:15:50.531Z,23.57
2022-08-12T07:16:50.501Z,23.80
2022-08-12T07:17:50.486Z,23.85
2022-08-12T07:18:50.480Z,23.97
2022-08-12T07:19:50.478Z,24.07
2022-08-12T07:20:52.776Z,24.17
2022-08-12T07:21:59.789Z,24.24
2022-08-12T07:22:50.417Z,24.42
2022-08-12T07:23:50.424Z,24.60
2022-08-12T07:24:50.387Z,24.83
2022-08-12T07:25:52.275Z,25.00
2022-08-12T07:26:50.383Z,25.43
2022-08-12T07:27:50.360Z,25.68
2022-08-12T07:28:50.330Z,25.90
2022-08-12T07:30:02.787Z,26.22
2022-08-12T07:30:50.305Z,26.55
2022-08-12T07:31:50.296Z,26.92
2022-08-12T07:32:50.277Z,27.41
2022-08-12T07:33:50.268Z,27.89
2022-08-12T07:34:50.248Z,28.21
2022-08-12T07:35:50.236Z,28.25
2022-08-12T07:36:50.234Z,28.22
2022-08-12T07:37:50.258Z,28.06
2022-08-12T07:38:50.203Z,27.99
2022-08-12T07:40:00.033Z,28.16
2022-08-12T07:40:50.187Z,28.40
2022-08-12T07:41:50.161Z,28.25
2022-08-12T07:42:50.146Z,28.16
2022-08-12T07:43:50.147Z,28.38
2022-08-12T07:44:51.593Z,28.51
2022-08-12T07:45:50.122Z,28.23
2022-08-12T07:46:50.103Z,28.44
2022-08-12T07:47:50.089Z,28.65
2022-08-12T07:48:50.087Z,29.18
2022-08-12T07:50:04.991Z,29.35
2022-08-12T07:50:50.071Z,29.38
2022-08-12T07:51:50.041Z,29.26
2022-08-12T07:52:50.022Z,29.34
2022-08-12T07:54:00.378Z,29.56
2022-08-12T07:54:50.010Z,29.59
2022-08-12T07:55:49.998Z,29.60
2022-08-12T07:56:49.995Z,29.38
2022-08-12T07:57:49.972Z,29.28
2022-08-12T07:58:49.963Z,28.93
2022-08-12T07:59:52.830Z,29.00
2022-08-12T08:00:49.942Z,28.97
2022-08-12T08:01:50.024Z,28.69
2022-08-12T08:02:49.928Z,28.65
2022-08-12T08:03:49.952Z,28.54
2022-08-12T08:04:49.902Z,28.53
2022-08-12T08:05:49.896Z,28.69
2022-08-12T08:06:49.884Z,28.62
2022-08-12T08:07:49.873Z,28.77
2022-08-12T08:08:49.854Z,28.82
2022-08-12T08:09:49.856Z,28.96
2022-08-12T08:10:49.828Z,29.01
2022-08-12T08:11:49.826Z,29.00
2022-08-12T08:12:49.811Z,29.04
2022-08-12T08:13:49.832Z,29.34
2022-08-12T08:14:50.415Z,29.59
2022-08-12T08:16:02.844Z,29.71
2022-08-12T08:16:49.762Z,29.81
2022-08-12T08:17:49.772Z,30.33
2022-08-12T08:18:49.746Z,30.46
2022-08-12T08:20:03.522Z,30.33
2022-08-12T08:20:49.729Z,30.61
2022-08-12T08:21:49.737Z,30.78
2022-08-12T08:22:49.706Z,31.26
2022-08-12T08:23:55.850Z,31.09
2022-08-12T08:24:49.684Z,30.83
2022-08-12T08:25:49.674Z,30.67
2022-08-12T08:26:49.668Z,30.99
2022-08-12T08:27:49.675Z,31.38
2022-08-12T08:28:49.656Z,31.48
2022-08-12T08:29:49.640Z,31.64
2022-08-12T08:30:51.202Z,31.79
2022-08-12T08:31:49.629Z,32.10
2022-08-12T08:32:49.610Z,32.27
2022-08-12T08:34:09.687Z,32.02
2022-08-12T08:34:54.584Z,31.77
2022-08-12T08:35:49.582Z,31.77
2022-08-12T08:36:49.579Z,31.88
2022-08-12T08:37:49.567Z,31.87
2022-08-12T08:38:53.235Z,31.57
2022-08-12T08:39:49.595Z,31.58
2022-08-12T08:40:49.541Z,31.98
2022-08-12T08:42:16.294Z,32.22
2022-08-12T08:42:51.504Z,32.17
2022-08-12T08:43:49.530Z,32.29
2022-08-12T08:44:49.715Z,32.51
2022-08-12T08:45:49.489Z,32.64
2022-08-12T08:46:49.485Z,32.49
2022-08-12T08:47:49.483Z,32.42
2022-08-12T08:48:49.467Z,32.40
2022-08-12T08:49:49.453Z,32.33
2022-08-12T08:51:04.241Z,32.00
2022-08-12T08:51:49.449Z,31.73
2022-08-12T08:52:49.491Z,31.70
2022-08-12T08:53:52.716Z,31.23
2022-08-12T08:54:49.410Z,31.38
2022-08-12T08:56:04.726Z,31.48
2022-08-12T08:56:49.400Z,31.77
2022-08-12T08:57:49.387Z,31.96
2022-08-12T08:58:49.371Z,32.47
2022-08-12T08:59:51.839Z,32.57
2022-08-12T09:00:49.545Z,32.71
2022-08-12T09:01:49.420Z,32.54
2022-08-12T09:02:59.331Z,32.55
2022-08-12T09:05:09.237Z,32.79
2022-08-12T09:05:11.116Z,32.47
2022-08-12T09:06:02.045Z,32.36
2022-08-12T09:06:53.727Z,31.82
2022-08-12T09:07:59.398Z,31.73
2022-08-12T09:08:49.283Z,31.33
2022-08-12T09:10:03.683Z,31.11
2022-08-12T09:10:49.432Z,31.50
2022-08-12T09:12:07.645Z,31.38
2022-08-12T09:12:54.619Z,31.60
2022-08-12T09:14:12.075Z,31.68
2022-08-12T09:15:55.835Z,32.14
2022-08-12T09:16:50.275Z,32.15
2022-08-12T09:17:49.204Z,32.37
2022-08-12T09:18:52.420Z,32.37
2022-08-12T09:19:53.639Z,32.15
2022-08-12T09:20:50.688Z,32.21
2022-08-12T09:21:54.139Z,32.14
2022-08-12T09:22:49.671Z,32.17
2022-08-12T09:24:00.312Z,32.02
2022-08-12T09:24:49.143Z,31.98
2022-08-12T09:25:49.133Z,31.99
2022-08-12T09:26:49.130Z,32.29
2022-08-12T09:27:57.993Z,32.11
2022-08-12T09:28:49.269Z,32.02
2022-08-12T09:30:11.926Z,32.13
2022-08-12T09:30:49.088Z,31.99
2022-08-12T09:32:07.163Z,32.32
2022-08-12T09:33:04.082Z,31.99
2022-08-12T09:34:28.894Z,31.76
2022-08-12T09:34:50.844Z,31.45
2022-08-12T09:36:04.620Z,31.60
2022-08-12T09:37:00.082Z,31.76
2022-08-12T09:37:57.867Z,31.92
2022-08-12T09:38:59.181Z,32.49
2022-08-12T09:40:04.999Z,32.21
2022-08-12T09:40:57.562Z,32.20
2022-08-12T09:42:09.951Z,32.47
2022-08-12T09:43:11.249Z,32.61
2022-08-12T09:43:53.904Z,32.18
2022-08-12T09:44:49.063Z,32.05
2022-08-12T09:46:19.806Z,32.30
2022-08-12T09:46:49.005Z,32.49
2022-08-12T09:47:50.042Z,32.67
2022-08-12T09:48:56.243Z,32.55
2022-08-12T09:49:48.915Z,32.14
2022-08-12T09:50:50.554Z,32.25
2022-08-12T09:51:48.923Z,31.95
2022-08-12T09:52:49.717Z,31.98
2022-08-12T09:54:08.893Z,32.06
2022-08-12T09:54:50.303Z,32.52
2022-08-12T09:56:07.015Z,32.86
2022-08-12T09:57:02.663Z,32.88
2022-08-12T09:58:44.983Z,32.70
2022-08-12T09:59:00.169Z,32.61
2022-08-12T10:00:15.572Z,31.82
2022-08-12T10:00:52.069Z,31.58
2022-08-12T10:02:41.856Z,32.02
2022-08-12T10:02:53.416Z,32.15
2022-08-12T10:04:04.254Z,32.22
2022-08-12T10:04:51.615Z,32.22
2022-08-12T10:06:19.810Z,32.58
2022-08-12T10:06:54.966Z,32.85
2022-08-12T10:07:48.759Z,33.07
2022-08-12T10:08:52.655Z,32.89
2022-08-12T10:09:57.042Z,33.03
2022-08-12T10:10:48.978Z,33.27
2022-08-12T10:12:10.405Z,33.34
2022-08-12T10:13:10.294Z,33.37
2022-08-12T10:13:48.725Z,33.03
2022-08-12T10:14:50.636Z,32.80
2022-08-12T10:16:01.741Z,32.64
2022-08-12T10:16:48.700Z,32.27
2022-08-12T10:17:56.710Z,32.49
2022-08-12T10:18:51.194Z,32.61
2022-08-12T10:19:51.745Z,32.96
2022-08-12T10:20:48.660Z,32.71
2022-08-12T10:21:48.647Z,32.42
2022-08-12T10:22:49.450Z,32.20
2022-08-12T10:23:51.591Z,32.14
2022-08-12T10:24:53.080Z,32.55
2022-08-12T10:26:18.578Z,32.67
2022-08-12T10:26:48.610Z,32.67
2022-08-12T10:28:03.712Z,32.70
2022-08-12T10:29:01.952Z,32.80
2022-08-12T10:30:38.641Z,32.15
2022-08-12T10:30:59.001Z,32.43
2022-08-12T10:32:21.538Z,32.85
2022-08-12T10:32:56.231Z,32.62
2022-08-12T10:34:05.163Z,32.55
2022-08-12T10:34:53.659Z,32.58
2022-08-12T10:35:48.564Z,32.51
2022-08-12T10:36:48.565Z,32.64
2022-08-12T10:38:34.106Z,32.70
2022-08-12T10:38:48.553Z,32.85
2022-08-12T10:40:05.629Z,33.03
2022-08-12T10:40:48.561Z,32.92
2022-08-12T10:41:58.522Z,32.25
2022-08-12T10:42:48.499Z,32.18
2022-08-12T10:43:55.542Z,32.11
2022-08-12T10:44:48.512Z,32.29
2022-08-12T10:45:48.483Z,32.37
2022-08-12T10:46:49.823Z,32.48
2022-08-12T10:48:07.670Z,32.79
2022-08-12T10:48:58.523Z,32.67
2022-08-12T10:50:02.571Z,33.07
2022-08-12T10:50:58.515Z,33.29
2022-08-12T10:52:04.671Z,32.69
2022-08-12T10:52:48.689Z,32.59
2022-08-12T10:53:48.438Z,32.84
2022-08-12T10:54:49.425Z,32.70
2022-08-12T10:55:56.102Z,32.40
2022-08-12T10:56:48.419Z,32.44
2022-08-12T10:58:13.689Z,32.37
2022-08-12T10:58:48.427Z,32.42
2022-08-12T11:00:30.910Z,32.51
2022-08-12T11:01:25.967Z,32.48
2022-08-12T11:04:16.919Z,32.15
2022-08-12T11:04:22.340Z,32.39
2022-08-12T11:04:31.874Z,32.35
2022-08-12T11:04:49.878Z,32.30
2022-08-12T11:07:05.724Z,32.57
2022-08-12T11:07:08.364Z,32.43
2022-08-12T11:08:33.971Z,32.32
2022-08-12T11:08:48.503Z,32.37
2022-08-12T11:10:00.001Z,32.58
2022-08-12T11:10:48.366Z,32.77
2022-08-12T11:12:35.331Z,33.01
2022-08-12T11:12:58.713Z,32.88
2022-08-12T11:13:48.990Z,32.92
2022-08-12T11:14:51.190Z,32.51
2022-08-12T11:16:19.591Z,32.20
2022-08-12T11:17:33.751Z,32.27
2022-08-12T11:17:53.938Z,32.37
2022-08-12T11:18:48.336Z,32.57
2022-08-12T11:19:48.329Z,32.69
2022-08-12T11:20:48.831Z,32.62
2022-08-12T11:21:58.256Z,32.59
2022-08-12T11:22:58.144Z,32.42
2022-08-12T11:23:53.683Z,32.30
2022-08-12T11:24:51.294Z,32.47
2022-08-12T11:25:57.309Z,32.64
2022-08-12T11:26:48.334Z,32.77
2022-08-12T11:27:51.376Z,32.91
2022-08-12T11:28:59.134Z,32.71
2022-08-12T11:30:05.369Z,32.69
2022-08-12T11:30:48.293Z,32.71
2022-08-12T11:31:56.269Z,32.69
2022-08-12T11:32:48.281Z,32.61
2022-08-12T11:34:04.138Z,32.74
2022-08-12T11:34:53.781Z,32.64
2022-08-12T11:35:48.284Z,32.47
2022-08-12T11:36:53.435Z,32.39
2022-08-12T11:37:58.824Z,32.22
2022-08-12T11:38:50.872Z,32.10
2022-08-12T11:40:48.231Z,31.93
2022-08-12T11:41:48.247Z,31.85
2022-08-12T11:42:48.528Z,31.92
2022-08-12T11:43:50.622Z,32.06
2022-08-12T11:44:48.225Z,32.03
2022-08-12T11:45:53.171Z,32.03
2022-08-12T11:46:52.443Z,32.11
2022-08-12T11:47:49.273Z,32.44
2022-08-12T11:48:51.518Z,32.79
2022-08-12T11:49:49.888Z,32.93
2022-08-12T11:50:48.214Z,33.23
2022-08-12T11:51:57.632Z,33.41
2022-08-12T11:52:55.805Z,33.53
2022-08-12T11:53:59.440Z,33.42
2022-08-12T11:54:51.065Z,33.30
2022-08-12T11:55:48.210Z,33.04
2022-08-12T11:56:59.009Z,32.85
2022-08-12T11:58:19.762Z,32.88
2022-08-12T12:02:01.792Z,32.74
2022-08-12T12:02:02.645Z,32.64
2022-08-12T12:02:48.256Z,32.67
2022-08-12T12:03:48.203Z,32.73
2022-08-12T12:04:52.487Z,32.73
2022-08-12T12:05:48.200Z,32.85
2022-08-12T12:06:52.910Z,32.99
2022-08-12T12:08:38.016Z,33.39
2022-08-12T12:08:51.524Z,32.93
2022-08-12T12:09:53.499Z,33.06
2022-08-12T12:10:48.202Z,33.26
2022-08-12T12:11:49.350Z,33.29
2022-08-12T12:12:50.167Z,33.27
2022-08-12T12:14:07.444Z,33.19
2022-08-12T12:14:54.659Z,32.88
2022-08-12T12:15:48.225Z,32.91
2022-08-12T12:16:50.861Z,32.69
2022-08-12T12:17:48.202Z,32.67
2022-08-12T12:18:48.213Z,32.67
2022-08-12T12:19:48.201Z,32.51
2022-08-12T12:20:48.371Z,32.51
2022-08-12T12:21:49.529Z,32.52
2022-08-12T12:22:48.210Z,32.86
2022-08-12T12:23:48.194Z,33.07
2022-08-12T12:24:48.198Z,33.22
2022-08-12T12:26:06.852Z,33.41
2022-08-12T12:26:48.193Z,33.34
2022-08-12T12:28:04.972Z,33.46
2022-08-12T12:28:54.473Z,33.55
2022-08-12T12:30:19.353Z,33.53
2022-08-12T12:30:54.664Z,33.53
2022-08-12T12:32:09.771Z,33.79
2022-08-12T12:32:53.304Z,33.70
2022-08-12T12:33:58.246Z,33.31
2022-08-12T12:35:14.333Z,33.23
2022-08-12T12:36:19.832Z,33.11
2022-08-12T12:36:48.197Z,33.20
2022-08-12T12:38:03.292Z,33.51
2022-08-12T12:38:48.192Z,33.80
2022-08-12T12:39:55.378Z,33.58
2022-08-12T12:40:50.252Z,33.67
2022-08-12T12:42:47.562Z,33.78
2022-08-12T12:42:56.840Z,33.49
2022-08-12T12:44:03.795Z,33.41
2022-08-12T12:44:51.041Z,33.26
2022-08-12T12:45:48.194Z,33.27
2022-08-12T12:46:48.199Z,33.45
2022-08-12T12:47:48.198Z,33.52
2022-08-12T12:48:48.196Z,33.33
2022-08-12T12:49:48.198Z,33.39
2022-08-12T12:50:51.580Z,33.41
2022-08-12T12:52:18.009Z,33.39
2022-08-12T12:52:48.207Z,33.43
2022-08-12T12:54:08.575Z,33.55
2022-08-12T12:54:48.196Z,32.80
2022-08-12T12:55:48.196Z,32.54
2022-08-12T12:56:48.195Z,32.44